Time;durP1;ratioP1;P1;durP2;ratioP2;P2;SDS_P1;SDS_P2;PMS_P1;PMS_P2;Temp;Humidity;BMP_temperature;BMP_pressure;BME280_temperature;BME280_humidity;BME280_pressure;Samples;Min_cycle;Max_cycle;Signal;HPM_P1;HPM_P2
2022/04/26 03:37:24;;;;;;;18.02;10.35;;;9.70;99.90;;;;;;5097940;28;20039;-70
2022/04/26 03:39:50;;;;;;;16.67;9.90;;;9.50;99.90;;;;;;5077211;28;20142;-70
2022/04/26 03:42:16;;;;;;;16.30;9.40;;;9.40;99.90;;;;;;5094468;28;20285;-69
2022/04/26 03:44:45;;;;;;;13.75;9.82;;;9.40;99.90;;;;;;5067643;28;20035;-69
2022/04/26 03:47:11;;;;;;;14.70;9.40;;;9.40;99.90;;;;;;5087566;28;20038;-69
2022/04/26 03:49:37;;;;;;;14.30;9.48;;;9.40;99.90;;;;;;5098855;28;20036;-69
2022/04/26 03:52:03;;;;;;;18.67;10.57;;;9.40;99.90;;;;;;5100459;28;20118;-69
2022/04/26 03:54:29;;;;;;;15.55;10.30;;;9.40;99.90;;;;;;5100287;28;20031;-69
2022/04/26 03:56:54;;;;;;;17.38;10.25;;;9.20;99.90;;;;;;5086183;28;20055;-69
2022/04/26 03:59:20;;;;;;;18.42;9.75;;;9.30;99.90;;;;;;5099869;28;20107;-69
2022/04/26 04:01:47;;;;;;;15.85;9.73;;;9.00;99.90;;;;;;5082661;28;20114;-69
2022/04/26 04:04:13;;;;;;;20.77;10.05;;;9.00;99.90;;;;;;5100216;28;20090;-68
2022/04/26 04:06:38;;;;;;;17.70;9.93;;;9.00;99.90;;;;;;5060196;28;20020;-68
2022/04/26 04:09:04;;;;;;;15.18;8.68;;;8.90;99.90;;;;;;5115778;28;20115;-68
2022/04/26 04:11:30;;;;;;;14.30;8.70;;;9.00;99.90;;;;;;5103596;28;20043;-68
2022/04/26 04:13:57;;;;;;;14.52;9.13;;;8.80;99.90;;;;;;5119351;28;20107;-69
2022/04/26 04:16:22;;;;;;;13.80;7.95;;;8.70;99.90;;;;;;5121033;28;20116;-68
2022/04/26 04:21:32;;;;;;;13.63;8.15;;;8.80;99.90;;;;;;5119072;28;20059;-68
2022/04/26 04:23:58;;;;;;;15.45;7.63;;;9.30;99.90;;;;;;5117768;28;20324;-68
2022/04/26 04:26:24;;;;;;;11.93;7.70;;;9.00;99.90;;;;;;5116435;28;20032;-68
2022/04/26 04:28:50;;;;;;;17.92;8.55;;;8.90;99.90;;;;;;5121013;27;20148;-70
2022/04/26 04:31:16;;;;;;;11.52;8.05;;;9.00;99.90;;;;;;5116959;27;20035;-68
2022/04/26 04:33:45;;;;;;;13.48;7.20;;;8.90;99.90;;;;;;5115782;28;20110;-69
2022/04/26 04:36:11;;;;;;;15.13;6.90;;;8.90;99.90;;;;;;5117457;28;20054;-69
2022/04/26 04:38:36;;;;;;;17.70;7.18;;;8.80;99.90;;;;;;5125891;28;20035;-70
2022/04/26 04:41:02;;;;;;;12.15;6.30;;;9.10;99.90;;;;;;5111908;28;20023;-70
2022/04/26 04:43:28;;;;;;;10.50;7.03;;;9.00;99.90;;;;;;5103093;28;20107;-69
2022/04/26 04:45:54;;;;;;;11.52;6.95;;;9.40;99.90;;;;;;5101993;28;20035;-69
2022/04/26 04:48:19;;;;;;;11.15;6.10;;;9.20;99.90;;;;;;5130615;28;20023;-69
2022/04/26 04:50:45;;;;;;;14.55;6.65;;;9.10;99.90;;;;;;5100999;27;20036;-69
2022/04/26 04:53:11;;;;;;;13.65;6.60;;;9.10;99.90;;;;;;5116080;28;20066;-69
2022/04/26 04:55:39;;;;;;;14.05;6.57;;;9.30;99.90;;;;;;5130410;28;20039;-69
2022/04/26 04:58:06;;;;;;;10.50;6.50;;;9.40;99.90;;;;;;5124965;28;20035;-69
2022/04/26 05:00:31;;;;;;;11.18;6.25;;;9.40;99.90;;;;;;5108109;28;20023;-69
2022/04/26 05:02:58;;;;;;;11.68;5.70;;;9.40;99.90;;;;;;5127189;27;20046;-69
2022/04/26 05:05:23;;;;;;;8.77;5.93;;;9.40;99.90;;;;;;5124208;28;20194;-69
2022/04/26 05:07:50;;;;;;;8.48;5.68;;;9.60;99.90;;;;;;5093588;27;20042;-68
2022/04/26 05:10:16;;;;;;;12.55;4.93;;;9.80;99.90;;;;;;5132339;27;20098;-67
2022/04/26 05:12:41;;;;;;;13.02;5.15;;;9.90;99.90;;;;;;5130242;27;20246;-68
2022/04/26 05:15:07;;;;;;;12.20;5.75;;;9.70;99.90;;;;;;5134021;27;20042;-68
2022/04/26 05:17:33;;;;;;;9.25;5.65;;;9.80;99.90;;;;;;5118806;27;20031;-70
2022/04/26 05:20:00;;;;;;;9.75;4.68;;;9.90;99.90;;;;;;5102017;27;20311;-70
2022/04/26 05:24:53;;;;;;;9.00;4.97;;;10.00;99.90;;;;;;5129625;27;20034;-70
2022/04/26 05:25:18;;;;;;;9.50;5.15;;;10.00;99.90;;;;;;5130507;27;20027;-68
2022/04/26 05:27:43;;;;;;;11.48;5.03;;;10.00;99.90;;;;;;5112133;27;20094;-69
2022/04/26 05:30:10;;;;;;;11.50;5.05;;;10.30;99.90;;;;;;5117677;27;20031;-70
2022/04/26 05:32:35;;;;;;;11.48;5.68;;;10.50;99.90;;;;;;5126117;27;20106;-70
2022/04/26 05:35:03;;;;;;;11.73;5.55;;;10.90;99.90;;;;;;5101101;27;20038;-69
2022/04/26 05:37:31;;;;;;;13.18;5.72;;;10.70;99.90;;;;;;5129252;27;20095;-70
2022/04/26 05:40:03;;;;;;;8.00;5.13;;;11.00;99.90;;;;;;5121002;27;20039;-69
2022/04/26 05:42:29;;;;;;;9.00;5.05;;;11.10;99.90;;;;;;5113463;27;20031;-69
2022/04/26 05:44:57;;;;;;;11.68;5.28;;;11.30;99.90;;;;;;5123024;27;20232;-70
2022/04/26 05:47:23;;;;;;;10.77;5.50;;;11.30;99.90;;;;;;5118457;27;20079;-71
2022/04/26 05:49:48;;;;;;;9.80;5.30;;;11.20;99.90;;;;;;5129040;27;20301;-69
2022/04/26 05:52:14;;;;;;;7.70;5.00;;;11.30;99.90;;;;;;5129146;27;20031;-69
2022/04/26 05:54:40;;;;;;;9.55;5.32;;;11.60;99.90;;;;;;5137593;27;20067;-71
2022/04/26 05:57:05;;;;;;;7.20;5.03;;;11.60;99.90;;;;;;5129019;27;20039;-70
2022/04/26 05:59:31;;;;;;;8.02;5.20;;;11.70;99.90;;;;;;5136282;27;20225;-68
2022/04/26 06:01:57;;;;;;;11.02;5.15;;;11.90;99.90;;;;;;5132297;27;20234;-68
2022/04/26 06:04:24;;;;;;;8.15;5.63;;;11.60;99.90;;;;;;5138494;27;20349;-67
2022/04/26 06:06:51;;;;;;;13.10;5.60;;;11.60;99.90;;;;;;5132845;27;20270;-67
2022/04/26 06:09:16;;;;;;;10.10;5.45;;;11.60;99.90;;;;;;5123842;27;20046;-67
2022/04/26 06:11:43;;;;;;;9.52;5.95;;;11.50;99.90;;;;;;5112395;27;20458;-68
2022/04/26 06:14:09;;;;;;;9.00;4.75;;;11.50;99.90;;;;;;5115456;27;20206;-68
2022/04/26 06:16:37;;;;;;;10.80;5.03;;;11.30;99.90;;;;;;5109679;27;20049;-68
2022/04/26 06:19:03;;;;;;;10.85;4.95;;;11.30;99.90;;;;;;5128234;27;20055;-69
2022/04/26 06:21:29;;;;;;;7.95;4.93;;;11.40;99.90;;;;;;5122426;27;20031;-68
2022/04/26 06:23:54;;;;;;;10.07;4.40;;;11.40;99.90;;;;;;5115495;27;20027;-69
2022/04/26 06:26:20;;;;;;;7.28;4.50;;;11.30;99.90;;;;;;5119285;27;20026;-70
2022/04/26 06:28:46;;;;;;;7.60;4.07;;;11.40;99.90;;;;;;5132261;27;20045;-69
2022/04/26 06:31:11;;;;;;;8.57;4.45;;;11.40;99.90;;;;;;5131605;27;20233;-70
2022/04/26 06:33:37;;;;;;;7.63;4.15;;;11.30;99.90;;;;;;5110841;27;20282;-70
2022/04/26 06:36:04;;;;;;;9.18;4.03;;;11.30;99.90;;;;;;5100435;27;20019;-69
2022/04/26 06:38:30;;;;;;;8.50;4.15;;;11.20;99.90;;;;;;5128633;27;20039;-71
2022/04/26 06:40:55;;;;;;;7.07;4.07;;;11.20;99.90;;;;;;5129622;27;20030;-68
2022/04/26 06:43:21;;;;;;;7.70;3.85;;;11.10;99.90;;;;;;5106096;27;20027;-68
2022/04/26 06:45:47;;;;;;;6.22;3.40;;;11.00;99.90;;;;;;5131412;27;20037;-71
2022/04/26 06:48:14;;;;;;;8.63;3.83;;;11.10;99.90;;;;;;5115022;27;20103;-69
2022/04/26 06:50:40;;;;;;;7.30;3.20;;;11.20;99.90;;;;;;5124502;27;20094;-70
2022/04/26 06:53:07;;;;;;;5.57;3.10;;;10.70;99.90;;;;;;5119676;27;20034;-71
2022/04/26 06:55:32;;;;;;;7.13;3.20;;;10.30;99.90;;;;;;5113285;27;20035;-70
2022/04/26 06:57:58;;;;;;;7.10;3.40;;;10.40;99.90;;;;;;5113616;27;20042;-70
2022/04/26 07:00:24;;;;;;;6.63;3.60;;;10.50;99.90;;;;;;5144541;27;20305;-69
2022/04/26 07:02:50;;;;;;;5.72;2.80;;;10.70;99.90;;;;;;5125110;27;20066;-69
2022/04/26 07:05:16;;;;;;;5.32;2.53;;;10.90;99.90;;;;;;5119939;27;20026;-69
2022/04/26 07:07:42;;;;;;;7.95;3.17;;;11.10;99.90;;;;;;5128593;27;20336;-70
2022/04/26 07:10:09;;;;;;;5.07;3.28;;;11.20;99.90;;;;;;5124148;27;20295;-71
2022/04/26 07:12:35;;;;;;;7.55;3.15;;;11.30;99.90;;;;;;5125488;27;20047;-70
2022/04/26 07:15:02;;;;;;;7.28;3.25;;;11.30;99.90;;;;;;5141257;27;20098;-71
2022/04/26 07:17:28;;;;;;;8.70;3.03;;;10.60;99.90;;;;;;5140949;27;20068;-71
2022/04/26 07:19:53;;;;;;;6.90;2.92;;;10.10;99.90;;;;;;5124222;27;20035;-71
2022/04/26 07:22:19;;;;;;;6.53;2.90;;;9.80;99.90;;;;;;5141089;27;20110;-69
2022/04/26 07:24:45;;;;;;;7.53;2.65;;;9.60;99.90;;;;;;5140866;27;20023;-70
2022/04/26 07:27:11;;;;;;;4.65;3.00;;;9.50;99.90;;;;;;5133033;27;20133;-70
2022/04/26 07:29:41;;;;;;;8.90;2.80;;;9.30;99.90;;;;;;5115808;28;20093;-69
2022/04/26 07:32:08;;;;;;;6.07;2.65;;;9.30;99.90;;;;;;5105352;28;20077;-70
2022/04/26 07:34:34;;;;;;;6.30;3.22;;;9.30;99.90;;;;;;5115350;27;20031;-71
2022/04/26 07:37:02;;;;;;;6.63;2.75;;;9.40;99.90;;;;;;5110121;28;20353;-70
2022/04/26 07:39:37;;;;;;;4.20;2.50;;;9.40;99.90;;;;;;5136880;27;20054;-70
2022/04/26 07:42:04;;;;;;;6.25;2.70;;;9.60;99.90;;;;;;5119299;27;20101;-71
2022/04/26 07:44:31;;;;;;;7.38;3.00;;;9.50;99.90;;;;;;5115788;28;20047;-70
2022/04/26 07:47:00;;;;;;;9.40;2.90;;;9.40;99.90;;;;;;5116012;28;20106;-69
2022/04/26 07:49:27;;;;;;;7.78;2.95;;;9.80;99.90;;;;;;5083157;28;20040;-70
2022/04/26 07:51:53;;;;;;;5.43;2.60;;;10.30;99.90;;;;;;5099431;28;20043;-69
2022/04/26 07:54:19;;;;;;;7.78;3.25;;;10.80;99.90;;;;;;5120184;27;20027;-71
2022/04/26 07:56:46;;;;;;;5.68;3.08;;;10.80;99.90;;;;;;5133489;27;20100;-70
2022/04/26 07:59:12;;;;;;;4.75;2.80;;;10.50;99.90;;;;;;5132989;27;20462;-70
2022/04/26 08:01:38;;;;;;;5.32;3.22;;;10.70;99.90;;;;;;5082383;28;20213;-70
2022/04/26 08:04:04;;;;;;;4.65;3.00;;;10.90;99.90;;;;;;5100946;27;20039;-69
2022/04/26 08:06:30;;;;;;;4.65;2.55;;;11.30;99.90;;;;;;5085788;28;20043;-70
2022/04/26 08:08:56;;;;;;;5.57;3.10;;;11.40;99.90;;;;;;5134956;27;20322;-70
2022/04/26 08:11:22;;;;;;;3.85;2.65;;;11.50;99.90;;;;;;5136816;28;20059;-70
2022/04/26 08:13:48;;;;;;;7.38;2.88;;;11.20;99.90;;;;;;5119324;28;20043;-70
2022/04/26 08:16:14;;;;;;;6.47;2.55;;;11.50;99.90;;;;;;5102347;27;20122;-70
2022/04/26 08:18:40;;;;;;;6.18;2.80;;;11.50;99.90;;;;;;5108809;28;20035;-69
2022/04/26 08:21:07;;;;;;;6.18;2.38;;;11.20;99.90;;;;;;5127789;28;20038;-69
2022/04/26 08:29:22;;;;;;;5.78;2.95;;;11.20;99.90;;;;;;5136455;28;20376;-69
2022/04/26 08:31:48;;;;;;;5.63;2.38;;;11.60;99.90;;;;;;5136518;28;20148;-70
2022/04/26 08:34:13;;;;;;;5.75;2.80;;;11.50;99.90;;;;;;5114496;28;20027;-70
2022/04/26 08:36:39;;;;;;;4.40;2.70;;;11.70;99.90;;;;;;5115909;28;20032;-70
2022/04/26 08:39:05;;;;;;;4.40;2.42;;;11.90;99.90;;;;;;5092242;28;20034;-70
2022/04/26 08:41:31;;;;;;;4.45;2.80;;;11.70;99.90;;;;;;5129674;28;20038;-70
2022/04/26 08:43:57;;;;;;;5.13;2.28;;;11.80;99.90;;;;;;5086278;27;20043;-70
2022/04/26 08:50:59;;;;;;;4.72;2.53;;;11.80;99.90;;;;;;5122924;27;20043;-70
2022/04/26 08:52:00;;;;;;;4.10;2.58;;;12.10;99.90;;;;;;5139985;27;20092;-70
2022/04/26 08:54:26;;;;;;;7.30;2.45;;;12.20;99.90;;;;;;5139831;27;20350;-69
2022/04/26 08:56:51;;;;;;;5.57;2.47;;;12.50;99.90;;;;;;5121815;27;20586;-69
2022/04/26 08:59:18;;;;;;;7.70;2.92;;;12.30;99.90;;;;;;5122512;27;20039;-69
2022/04/26 09:01:44;;;;;;;5.18;2.85;;;11.80;99.90;;;;;;5122710;27;20347;-70
2022/04/26 09:04:15;;;;;;;8.73;2.83;;;11.30;99.90;;;;;;5105530;27;20065;-68
2022/04/26 09:06:45;;;;;;;6.15;2.63;;;12.10;99.90;;;;;;5138752;27;20039;-69
2022/04/26 09:09:16;;;;;;;4.60;2.50;;;11.70;99.90;;;;;;5139223;27;20062;-70
2022/04/26 09:11:43;;;;;;;4.38;2.10;;;11.90;99.90;;;;;;5122277;27;20103;-69
2022/04/26 09:14:29;;;;;;;5.15;2.05;;;12.00;99.90;;;;;;5139290;27;20081;-68
2022/04/26 09:17:09;;;;;;;7.20;3.03;;;12.30;99.90;;;;;;5126067;27;20043;-70
2022/04/26 09:19:49;;;;;;;8.35;2.50;;;12.10;99.90;;;;;;5118581;28;20164;-70
2022/04/26 09:22:20;;;;;;;4.75;2.40;;;11.70;99.90;;;;;;5118530;28;20459;-69
2022/04/26 09:24:59;;;;;;;5.82;2.65;;;12.40;99.90;;;;;;5118893;28;20102;-70
2022/04/26 09:27:27;;;;;;;5.78;2.28;;;12.50;99.90;;;;;;5116182;27;20264;-70
2022/04/26 09:29:52;;;;;;;5.38;2.78;;;12.70;99.90;;;;;;5122671;27;20075;-70
2022/04/26 09:32:18;;;;;;;4.95;2.60;;;13.10;99.90;;;;;;5138971;27;20035;-70
2022/04/26 09:34:44;;;;;;;5.78;2.22;;;13.70;99.90;;;;;;5139222;27;20068;-70
2022/04/26 09:37:12;;;;;;;2.85;2.35;;;13.10;99.90;;;;;;5113246;27;20102;-70
2022/04/26 09:39:39;;;;;;;6.05;2.20;;;13.80;99.90;;;;;;5136056;27;20043;-69
2022/04/26 09:42:06;;;;;;;5.28;2.17;;;13.20;99.90;;;;;;5117887;28;20103;-69
2022/04/26 09:44:33;;;;;;;3.85;2.30;;;13.60;99.90;;;;;;5101163;28;20035;-69
2022/04/26 09:47:00;;;;;;;7.90;2.42;;;14.00;99.90;;;;;;5101465;28;20063;-68
2022/04/26 09:49:36;;;;;;;4.47;2.40;;;14.10;99.90;;;;;;5116872;27;20050;-69
2022/04/26 09:52:02;;;;;;;4.95;2.42;;;14.60;99.90;;;;;;5138887;27;20042;-69
2022/04/26 09:54:29;;;;;;;3.55;1.98;;;14.10;99.90;;;;;;5104669;27;20100;-70
2022/04/26 09:56:55;;;;;;;5.18;2.60;;;14.50;99.90;;;;;;5138017;27;20326;-70
2022/04/26 09:59:28;;;;;;;3.67;2.10;;;14.70;99.90;;;;;;5126787;27;20047;-71
2022/04/26 10:01:58;;;;;;;5.07;2.25;;;14.40;99.90;;;;;;5118169;28;20047;-69
2022/04/26 10:04:29;;;;;;;6.90;2.78;;;13.50;99.90;;;;;;5100926;28;20035;-70
2022/04/26 10:07:02;;;;;;;4.07;2.40;;;13.50;99.90;;;;;;5118477;28;20108;-70
2022/04/26 10:09:29;;;;;;;4.63;2.63;;;12.60;99.90;;;;;;5101975;28;20055;-70
2022/04/26 10:11:57;;;;;;;4.65;2.22;;;12.40;99.90;;;;;;5101227;28;20350;-70
2022/04/26 10:14:23;;;;;;;5.40;2.55;;;12.70;99.90;;;;;;5100978;28;20039;-70
2022/04/26 10:16:50;;;;;;;6.10;3.25;;;13.30;99.90;;;;;;5100931;28;20039;-70
2022/04/26 10:19:16;;;;;;;4.63;2.53;;;12.80;99.90;;;;;;5118133;27;20027;-69
2022/04/26 10:21:49;;;;;;;6.00;2.60;;;12.50;99.90;;;;;;5118447;27;20070;-70
2022/04/26 10:24:21;;;;;;;4.90;2.50;;;12.30;99.90;;;;;;5121281;27;20058;-70
2022/04/26 10:26:48;;;;;;;4.40;2.65;;;12.00;99.90;;;;;;5137839;27;20035;-70
2022/04/26 10:29:15;;;;;;;5.95;3.10;;;11.50;99.90;;;;;;5138001;27;20031;-70
2022/04/26 10:31:47;;;;;;;7.28;3.30;;;11.30;99.90;;;;;;5137957;27;20043;-70
2022/04/26 10:34:29;;;;;;;5.13;3.10;;;11.40;99.90;;;;;;5120841;27;20038;-70
2022/04/26 10:37:09;;;;;;;5.68;2.95;;;12.20;99.90;;;;;;5135052;27;20035;-70
2022/04/26 10:39:46;;;;;;;4.32;2.38;;;12.90;99.90;;;;;;5117536;28;20043;-71
2022/04/26 10:42:22;;;;;;;4.07;2.20;;;13.40;99.90;;;;;;5099562;28;20048;-71
2022/04/26 10:44:49;;;;;;;4.47;2.08;;;13.50;99.90;;;;;;5117097;28;20330;-72
2022/04/26 10:47:18;;;;;;;4.35;2.88;;;13.80;99.90;;;;;;5083148;27;20303;-70
2022/04/26 10:49:47;;;;;;;4.57;2.42;;;13.20;99.90;;;;;;5136830;27;20047;-70
2022/04/26 10:52:25;;;;;;;3.58;2.40;;;12.50;99.90;;;;;;5137508;27;20043;-70
2022/04/26 10:57:21;;;;;;;4.78;3.10;;;13.10;99.90;;;;;;5135789;27;20360;-70
2022/04/26 10:59:49;;;;;;;5.00;2.55;;;13.10;99.90;;;;;;5117283;28;20357;-70
2022/04/26 11:02:21;;;;;;;5.55;2.78;;;12.50;99.90;;;;;;5099586;28;20270;-70
2022/04/26 11:04:54;;;;;;;6.38;2.72;;;12.60;99.90;;;;;;5117248;27;20046;-70
2022/04/26 11:07:25;;;;;;;5.95;2.20;;;13.30;99.90;;;;;;5115718;28;20050;-70
2022/04/26 11:09:53;;;;;;;4.85;2.28;;;13.20;99.90;;;;;;5116830;28;20086;-71
2022/04/26 11:12:27;;;;;;;4.47;2.45;;;13.50;99.90;;;;;;5099557;28;20211;-68
2022/04/26 11:14:56;;;;;;;5.32;3.05;;;14.20;99.90;;;;;;5117043;28;20100;-69
2022/04/26 11:17:22;;;;;;;5.05;2.50;;;13.90;99.90;;;;;;5116979;27;20050;-69
2022/04/26 11:19:50;;;;;;;3.28;2.47;;;13.30;99.90;;;;;;5118812;27;20040;-68
2022/04/26 11:22:17;;;;;;;4.60;2.30;;;12.60;99.90;;;;;;5119488;27;20330;-70
2022/04/26 11:30:32;;;;;;;4.00;2.30;;;14.30;99.90;;;;;;5136585;27;20345;-69
2022/04/26 11:33:03;;;;;;;5.57;2.80;;;13.80;99.90;;;;;;5136878;27;20116;-70
2022/04/26 11:35:29;;;;;;;4.00;2.40;;;13.70;99.90;;;;;;5136936;27;20074;-69
2022/04/26 11:37:57;;;;;;;3.58;2.30;;;14.00;99.90;;;;;;5119302;27;20070;-70
2022/04/26 11:40:32;;;;;;;6.00;2.83;;;14.20;99.90;;;;;;5136636;27;20046;-70
2022/04/26 11:43:06;;;;;;;4.25;2.20;;;14.50;99.90;;;;;;5137217;27;20092;-70
2022/04/26 11:45:37;;;;;;;4.05;2.30;;;14.10;99.90;;;;;;5136277;27;20035;-70
2022/04/26 11:48:07;;;;;;;4.07;1.90;;;13.40;99.90;;;;;;5121158;27;20031;-70
2022/04/26 11:50:33;;;;;;;3.28;2.15;;;14.10;99.90;;;;;;5099518;28;20333;-70
2022/04/26 11:53:09;;;;;;;4.40;2.53;;;14.40;99.90;;;;;;5099624;28;20031;-70
2022/04/26 11:55:39;;;;;;;9.40;2.60;;;14.50;99.90;;;;;;5116449;28;20050;-70
2022/04/26 11:58:26;;;;;;;3.25;2.10;;;14.30;99.90;;;;;;5116377;27;20048;-71
2022/04/26 12:01:07;;;;;;;2.90;2.10;;;14.00;99.90;;;;;;5116398;28;20035;-70
2022/04/26 12:03:43;;;;;;;5.70;2.28;;;14.30;99.90;;;;;;5099216;28;20130;-70
2022/04/26 12:06:13;;;;;;;5.07;2.55;;;14.50;99.90;;;;;;5115774;28;20106;-70
2022/04/26 12:09:00;;;;;;;5.03;2.40;;;14.40;99.90;;;;;;5099036;28;20054;-70
2022/04/26 12:11:32;;;;;;;3.47;1.90;;;14.40;99.90;;;;;;5132362;27;20086;-69
2022/04/26 12:14:13;;;;;;;4.40;2.30;;;14.40;99.90;;;;;;5116047;28;20260;-69
2022/04/26 12:16:44;;;;;;;3.58;2.10;;;14.40;99.90;;;;;;5115821;28;20116;-69
2022/04/26 12:19:11;;;;;;;3.55;1.90;;;14.30;99.90;;;;;;5100763;28;20078;-69
2022/04/26 12:21:48;;;;;;;4.43;2.10;;;14.50;99.90;;;;;;5099904;28;20035;-69
2022/04/26 12:24:16;;;;;;;5.25;2.80;;;14.70;99.90;;;;;;5088869;28;20217;-70
2022/04/26 12:26:55;;;;;;;4.40;2.17;;;14.90;99.90;;;;;;5119867;28;20049;-69
2022/04/26 12:29:26;;;;;;;4.18;2.10;;;14.90;99.90;;;;;;5103178;28;20040;-70
2022/04/26 12:32:01;;;;;;;6.68;2.17;;;13.90;99.90;;;;;;5120191;28;20118;-70
2022/04/26 12:34:31;;;;;;;4.60;2.70;;;13.60;99.90;;;;;;5116009;28;20344;-70
2022/04/26 12:37:02;;;;;;;6.10;2.72;;;13.50;99.90;;;;;;5103055;28;20039;-69
2022/04/26 12:39:44;;;;;;;4.05;2.47;;;14.10;99.90;;;;;;5102701;28;20203;-70
2022/04/26 12:42:12;;;;;;;4.70;2.20;;;13.60;99.90;;;;;;5102636;28;20055;-70
2022/04/26 12:44:52;;;;;;;4.35;2.30;;;13.10;99.90;;;;;;5131615;27;20370;-71
2022/04/26 12:52:57;;;;;;;3.92;1.80;;;14.30;99.90;;;;;;5119716;28;20039;-69
2022/04/26 12:55:34;;;;;;;2.53;1.90;;;14.40;99.90;;;;;;5119768;27;20035;-70
2022/04/26 12:58:01;;;;;;;5.25;2.20;;;14.40;99.90;;;;;;5101952;28;20248;-70
2022/04/26 13:00:28;;;;;;;7.68;2.40;;;14.80;99.90;;;;;;5101722;28;20043;-70
2022/04/26 13:02:58;;;;;;;5.40;2.63;;;14.60;99.90;;;;;;5102231;28;20071;-70
2022/04/26 13:05:24;;;;;;;6.10;2.30;;;14.80;99.90;;;;;;5102745;27;20043;-69
2022/04/26 13:07:49;;;;;;;4.45;2.63;;;15.10;99.90;;;;;;5102880;27;20360;-70
2022/04/26 13:10:17;;;;;;;5.60;2.40;;;15.00;99.90;;;;;;5105343;27;20050;-70
2022/04/26 13:12:43;;;;;;;2.65;2.10;;;14.80;99.90;;;;;;5122870;27;20046;-69
2022/04/26 13:15:10;;;;;;;3.90;2.47;;;14.90;99.90;;;;;;5112045;27;20110;-69
2022/04/26 13:17:39;;;;;;;4.38;2.60;;;15.00;99.90;;;;;;5105088;27;20337;-71
2022/04/26 13:20:06;;;;;;;5.35;2.45;;;14.90;99.90;;;;;;5109677;27;20034;-69
2022/04/26 13:22:36;;;;;;;6.72;2.58;;;15.20;99.90;;;;;;5125150;27;20038;-70
2022/04/26 13:25:06;;;;;;;3.97;2.30;;;15.00;99.90;;;;;;5103839;27;20213;-69
2022/04/26 13:27:36;;;;;;;4.85;2.15;;;14.90;99.90;;;;;;5125228;27;20104;-70
2022/04/26 13:30:03;;;;;;;4.32;2.22;;;14.00;99.90;;;;;;5124906;27;20038;-71
2022/04/26 13:32:30;;;;;;;6.07;2.33;;;14.50;99.90;;;;;;5142819;27;20022;-70
2022/04/26 13:34:56;;;;;;;3.30;2.13;;;14.90;99.90;;;;;;5142111;27;20073;-71
2022/04/26 13:37:24;;;;;;;3.80;2.35;;;14.40;99.90;;;;;;5142971;27;20062;-70
2022/04/26 13:39:50;;;;;;;3.70;2.05;;;14.10;99.90;;;;;;5126139;27;20073;-70
2022/04/26 13:42:17;;;;;;;6.28;2.47;;;13.30;99.90;;;;;;5125416;27;20042;-70
2022/04/26 13:44:43;;;;;;;5.10;2.40;;;12.80;99.90;;;;;;5125857;27;20045;-69
2022/04/26 13:47:09;;;;;;;3.05;2.33;;;12.50;99.90;;;;;;5124155;27;20284;-70
2022/04/26 13:49:39;;;;;;;4.78;2.63;;;12.30;99.90;;;;;;5122047;27;20039;-71
2022/04/26 13:52:06;;;;;;;4.25;2.72;;;12.80;99.90;;;;;;5105418;27;20039;-69
2022/04/26 13:54:36;;;;;;;4.05;2.28;;;12.70;99.90;;;;;;5104557;27;20051;-70
2022/04/26 13:57:15;;;;;;;3.45;2.45;;;13.60;99.90;;;;;;5105632;27;20304;-70
2022/04/26 13:59:42;;;;;;;3.75;2.20;;;13.60;99.90;;;;;;5122133;27;20041;-70
2022/04/26 14:02:08;;;;;;;5.80;2.50;;;13.30;99.90;;;;;;5105131;27;20194;-69
2022/04/26 14:04:34;;;;;;;4.68;2.40;;;12.90;99.90;;;;;;5071281;27;20046;-70
2022/04/26 14:07:00;;;;;;;2.55;2.15;;;12.90;99.90;;;;;;5113034;27;20137;-70
2022/04/26 14:09:26;;;;;;;4.95;2.28;;;13.70;99.90;;;;;;5121066;27;20043;-71
2022/04/26 14:11:55;;;;;;;9.77;2.70;;;14.10;99.90;;;;;;5104730;27;20055;-70
2022/04/26 14:22:35;;;;;;;6.27;2.57;;;14.30;99.90;;;;;;5141786;27;20620;-70
2022/04/26 14:25:04;;;;;;;6.22;2.92;;;14.10;99.90;;;;;;5141618;27;20534;-70
2022/04/26 14:27:31;;;;;;;3.42;2.55;;;14.00;99.90;;;;;;5141186;27;20274;-68
2022/04/26 14:29:57;;;;;;;6.90;2.83;;;13.90;99.90;;;;;;5141360;27;20049;-70
2022/04/26 14:32:23;;;;;;;3.85;2.65;;;13.70;99.90;;;;;;5124303;27;20114;-70
2022/04/26 14:34:49;;;;;;;5.78;2.40;;;12.90;99.90;;;;;;5141707;27;20085;-70
2022/04/26 14:37:15;;;;;;;4.30;2.45;;;12.60;99.90;;;;;;5124080;27;20039;-71
2022/04/26 14:39:41;;;;;;;4.57;2.58;;;12.40;99.90;;;;;;5140495;27;20103;-70
2022/04/26 14:42:08;;;;;;;6.60;2.60;;;12.50;99.90;;;;;;5124380;27;20265;-71
2022/04/26 14:44:34;;;;;;;6.40;2.50;;;12.90;99.90;;;;;;5107177;27;20031;-70
2022/04/26 14:47:02;;;;;;;4.65;2.53;;;13.10;99.90;;;;;;5141836;27;20042;-70
2022/04/26 14:49:29;;;;;;;4.05;2.42;;;12.90;99.90;;;;;;5131064;27;20039;-70
2022/04/26 14:51:54;;;;;;;4.63;2.75;;;12.80;99.90;;;;;;5104494;27;20092;-70
2022/04/26 14:54:21;;;;;;;6.22;2.70;;;12.20;99.90;;;;;;5120433;27;20325;-71
2022/04/26 14:56:47;;;;;;;4.30;2.58;;;11.90;99.90;;;;;;5103809;27;20047;-70
2022/04/26 14:59:15;;;;;;;5.85;2.88;;;12.20;99.90;;;;;;5104741;27;20027;-71
2022/04/26 15:01:46;;;;;;;4.03;2.53;;;12.00;99.90;;;;;;5120904;27;20069;-71
2022/04/26 15:04:12;;;;;;;6.22;3.25;;;12.50;99.90;;;;;;5134533;27;20326;-70
2022/04/26 15:06:38;;;;;;;4.38;2.90;;;12.70;99.90;;;;;;5103164;27;20039;-70
2022/04/26 15:11:48;;;;;;;4.95;2.50;;;12.50;99.90;;;;;;5106173;27;20051;-71
2022/04/26 15:16:58;;;;;;;5.40;2.13;;;11.80;99.90;;;;;;5120502;27;20039;-70
2022/04/26 15:19:24;;;;;;;4.00;2.50;;;11.80;99.90;;;;;;5103109;27;20063;-70
2022/04/26 15:21:50;;;;;;;4.60;2.92;;;12.00;99.90;;;;;;5122345;27;20042;-69
2022/04/26 15:24:15;;;;;;;5.53;2.97;;;12.00;99.90;;;;;;5127091;27;20229;-70
2022/04/26 15:26:41;;;;;;;6.75;2.88;;;11.70;99.90;;;;;;5102769;27;20062;-70
2022/04/26 15:29:07;;;;;;;4.80;2.72;;;11.80;99.90;;;;;;5120247;27;20283;-70
2022/04/26 15:31:34;;;;;;;7.03;2.47;;;11.80;99.90;;;;;;5102734;27;20410;-70
2022/04/26 15:33:59;;;;;;;5.20;2.60;;;11.70;99.90;;;;;;5105785;27;20106;-71
2022/04/26 15:36:25;;;;;;;5.10;2.35;;;11.80;99.90;;;;;;5105760;27;20042;-70
2022/04/26 15:38:55;;;;;;;5.38;2.80;;;11.90;99.90;;;;;;5119708;27;20031;-69
2022/04/26 15:41:23;;;;;;;3.90;2.50;;;12.10;99.90;;;;;;5103728;27;20125;-70
2022/04/26 15:43:50;;;;;;;5.90;2.55;;;12.40;99.90;;;;;;5102885;27;20107;-70
2022/04/26 15:46:15;;;;;;;5.30;2.63;;;12.20;99.90;;;;;;5104080;27;20050;-71
2022/04/26 15:48:47;;;;;;;6.10;2.58;;;12.10;99.90;;;;;;5119449;27;20046;-71
2022/04/26 15:51:16;;;;;;;5.80;2.40;;;11.90;99.90;;;;;;5103666;27;20112;-70
2022/04/26 15:53:42;;;;;;;4.13;2.60;;;11.70;99.90;;;;;;5085390;27;20037;-70
2022/04/26 15:56:08;;;;;;;4.28;2.67;;;11.90;99.90;;;;;;5127326;27;20042;-71
2022/04/26 15:58:33;;;;;;;4.70;2.60;;;12.00;99.90;;;;;;5122680;27;20039;-70
2022/04/26 16:00:59;;;;;;;5.13;2.30;;;12.10;99.90;;;;;;5140048;27;20026;-71
2022/04/26 16:03:25;;;;;;;5.53;2.22;;;12.40;99.90;;;;;;5106138;27;20091;-70
2022/04/26 16:05:51;;;;;;;5.13;2.00;;;12.40;99.90;;;;;;5139671;27;20034;-69
2022/04/26 16:08:16;;;;;;;5.30;2.22;;;12.50;99.90;;;;;;5140026;27;20062;-70
2022/04/26 16:21:39;;;;;;;4.85;2.33;;;11.90;99.90;;;;;;5136613;27;20042;-70
2022/04/26 16:24:05;;;;;;;3.50;2.38;;;11.90;99.90;;;;;;5139935;27;20041;-69
2022/04/26 16:26:34;;;;;;;3.40;2.35;;;12.00;99.90;;;;;;5119779;27;20064;-69
2022/04/26 16:29:01;;;;;;;6.28;2.40;;;11.80;99.90;;;;;;5119371;28;20035;-70
2022/04/26 16:31:28;;;;;;;3.95;2.15;;;11.60;99.90;;;;;;5102050;28;20099;-70
2022/04/26 16:33:58;;;;;;;4.47;2.70;;;11.40;99.90;;;;;;5101433;28;20249;-69
2022/04/26 16:36:25;;;;;;;3.92;2.33;;;11.40;99.90;;;;;;5101971;27;20039;-66
2022/04/26 16:38:51;;;;;;;5.80;2.33;;;11.20;99.90;;;;;;5121605;28;20035;-68
2022/04/26 16:41:18;;;;;;;3.55;2.70;;;11.30;99.90;;;;;;5122178;28;20096;-69
2022/04/26 16:43:44;;;;;;;4.00;2.70;;;11.10;99.90;;;;;;5121842;28;20098;-69
2022/04/26 16:46:11;;;;;;;6.20;2.40;;;11.20;99.90;;;;;;5121960;28;20023;-69
2022/04/26 16:48:38;;;;;;;4.15;2.17;;;11.00;99.90;;;;;;5091532;28;20119;-70
2022/04/26 16:51:04;;;;;;;4.45;2.13;;;10.90;99.90;;;;;;5110120;28;20311;-69
2022/04/26 16:53:29;;;;;;;5.30;2.55;;;10.90;99.90;;;;;;5106756;28;20057;-69
2022/04/26 16:55:56;;;;;;;9.13;2.78;;;10.80;99.90;;;;;;5106407;28;20102;-69
2022/04/26 16:58:22;;;;;;;2.70;2.47;;;10.70;99.90;;;;;;5140552;28;20031;-69
2022/04/26 17:00:48;;;;;;;5.30;2.40;;;10.70;99.90;;;;;;5106393;28;20039;-69
2022/04/26 17:03:15;;;;;;;5.18;2.72;;;10.70;99.90;;;;;;5140691;27;20440;-69
2022/04/26 17:05:48;;;;;;;3.03;2.13;;;10.80;99.90;;;;;;5129032;27;20030;-68
2022/04/26 17:08:15;;;;;;;4.65;2.25;;;10.70;99.90;;;;;;5147872;27;20053;-69
2022/04/26 17:10:42;;;;;;;4.03;2.35;;;10.70;99.90;;;;;;5130497;27;20070;-69
2022/04/26 17:13:07;;;;;;;5.20;2.50;;;10.70;99.90;;;;;;5146938;27;20035;-69
2022/04/26 17:15:33;;;;;;;6.10;2.95;;;10.60;99.90;;;;;;5129678;27;20101;-69
2022/04/26 17:18:01;;;;;;;4.25;2.15;;;10.80;99.90;;;;;;5130566;27;20277;-69